Terminal Aerodrome Forecast
Issued by NWS

Home | Current Version | Previous Version | Text Only | Print | Product List | Glossary On
Versions: 1 2 3 4 5 6 7 8 9 10 11 12 13 14 15 16 17 18 19 20 21 22 23 24 25 26 27 28
000
FTUS42 KCAE 272321
TAFOGB
TAF
KOGB 272321Z 2800/2824 VRB05KT P6SM SCT070 BKN200
     FM280200 13004KT P6SM VCSH SCT035 BKN050
     FM280800 08003KT 3SM BR OVC015
     FM281100 VRB02KT 2SM BR OVC004
     FM281400 18004KT 6SM BR BKN015
     FM281700 21008KT P6SM BKN035=

USA.gov is the U.S. government's official web portal to all federal, state and local government web resources and services.